Time;durP1;ratioP1;P1;durP2;ratioP2;P2;SDS_P1;SDS_P2;PMS_P1;PMS_P2;Temp;Humidity;BMP_temperature;BMP_pressure;BME280_temperature;BME280_humidity;BME280_pressure;Samples;Min_cycle;Max_cycle;Signal;HPM_P1;HPM_P2
2021/04/15 00:01:32;;;;;;;15.57;10.43;;;;;;;;;;5114628;28;20022;-51
2021/04/15 00:03:57;;;;;;;12.17;8.77;;;;;;;;;;5129197;27;20042;-49
2021/04/15 00:06:25;;;;;;;15.60;9.83;;;;;;;;;;5115325;28;20019;-50
2021/04/15 00:08:51;;;;;;;12.70;9.20;;;;;;;;;;5118786;28;20020;-51
2021/04/15 00:11:17;;;;;;;14.27;9.20;;;;;;;;;;5123434;27;20023;-50
2021/04/15 00:13:44;;;;;;;13.07;9.17;;;;;;;;;;5113177;28;20031;-55
2021/04/15 00:16:10;;;;;;;14.00;9.63;;;;;;;;;;5112775;28;20024;-50
2021/04/15 00:18:35;;;;;;;13.83;9.93;;;;;;;;;;5112659;28;20035;-50
2021/04/15 00:21:03;;;;;;;10.27;7.67;;;;;;;;;;5110979;28;20094;-49
2021/04/15 00:23:28;;;;;;;12.50;9.00;;;;;;;;;;5112029;28;20386;-52
2021/04/15 00:25:53;;;;;;;14.53;10.00;;;;;;;;;;5117111;28;20126;-51
2021/04/15 00:28:19;;;;;;;12.70;9.20;;;;;;;;;;5130762;28;20037;-45
2021/04/15 00:30:44;;;;;;;12.97;8.37;;;;;;;;;;5114843;27;20421;-50
2021/04/15 00:33:10;;;;;;;13.30;9.07;;;;;;;;;;5109422;28;20023;-49
2021/04/15 00:35:36;;;;;;;13.70;9.87;;;;;;;;;;5112809;28;20490;-48
2021/04/15 00:38:01;;;;;;;12.97;10.33;;;;;;;;;;5115529;28;20024;-47
2021/04/15 00:40:27;;;;;;;13.40;9.30;;;;;;;;;;5117301;28;20073;-52
2021/04/15 00:42:52;;;;;;;11.67;8.83;;;;;;;;;;5116386;28;20068;-48
2021/04/15 00:45:23;;;;;;;11.73;9.30;;;;;;;;;;5131848;27;20032;-52
2021/04/15 00:47:54;;;;;;;10.43;8.20;;;;;;;;;;5132570;27;20021;-50
2021/04/15 00:50:22;;;;;;;12.30;8.53;;;;;;;;;;5116239;27;20135;-51
2021/04/15 00:52:48;;;;;;;11.13;8.63;;;;;;;;;;5114251;28;20051;-50
2021/04/15 00:55:15;;;;;;;13.70;9.77;;;;;;;;;;5129444;27;20023;-50
2021/04/15 00:57:41;;;;;;;14.37;10.10;;;;;;;;;;5129110;27;20027;-52
2021/04/15 01:00:07;;;;;;;11.93;9.77;;;;;;;;;;5127987;27;20486;-53
2021/04/15 01:02:33;;;;;;;12.87;9.60;;;;;;;;;;5124145;27;20030;-46
2021/04/15 01:05:03;;;;;;;12.93;10.13;;;;;;;;;;5136549;27;20466;-49
2021/04/15 01:07:29;;;;;;;13.50;9.97;;;;;;;;;;5135747;27;20046;-49
2021/04/15 01:09:54;;;;;;;13.63;9.67;;;;;;;;;;5128460;27;20466;-49
2021/04/15 01:12:35;;;;;;;13.27;9.47;;;;;;;;;;5132528;27;20023;-48
2021/04/15 01:15:00;;;;;;;14.40;10.50;;;;;;;;;;5134725;27;20076;-47
2021/04/15 01:17:28;;;;;;;14.10;9.90;;;;;;;;;;5131735;27;20023;-48
2021/04/15 01:20:12;;;;;;;13.53;9.47;;;;;;;;;;5116904;27;20019;-52
2021/04/15 01:22:46;;;;;;;11.53;9.90;;;;;;;;;;5116230;27;20072;-47
2021/04/15 01:25:14;;;;;;;12.53;10.17;;;;;;;;;;5128140;27;20024;-47
2021/04/15 01:27:48;;;;;;;14.10;9.50;;;;;;;;;;5115855;27;20051;-51
2021/04/15 01:30:30;;;;;;;14.40;10.00;;;;;;;;;;5119702;27;20132;-50
2021/04/15 01:32:58;;;;;;;15.07;10.70;;;;;;;;;;5128961;27;20023;-49
2021/04/15 01:35:29;;;;;;;14.17;10.10;;;;;;;;;;5134690;27;20466;-54
2021/04/15 01:37:55;;;;;;;13.60;9.60;;;;;;;;;;5132202;27;20042;-49
2021/04/15 01:40:26;;;;;;;15.67;9.97;;;;;;;;;;5133605;27;20517;-46
2021/04/15 01:42:55;;;;;;;15.67;10.27;;;;;;;;;;5132293;27;20466;-47
2021/04/15 01:45:21;;;;;;;16.60;10.83;;;;;;;;;;5119121;27;20026;-52
2021/04/15 01:47:57;;;;;;;16.37;10.97;;;;;;;;;;5126609;27;20109;-47
2021/04/15 01:50:25;;;;;;;14.77;10.40;;;;;;;;;;5123905;27;20028;-51
2021/04/15 01:52:53;;;;;;;16.93;9.37;;;;;;;;;;5111779;28;20510;-47
2021/04/15 01:55:37;;;;;;;13.37;10.10;;;;;;;;;;5117103;27;20020;-49
2021/04/15 01:58:05;;;;;;;13.70;9.87;;;;;;;;;;5122650;27;20068;-47
2021/04/15 02:00:31;;;;;;;17.40;10.60;;;;;;;;;;5114568;27;20107;-48
2021/04/15 02:02:58;;;;;;;16.80;10.50;;;;;;;;;;5123423;27;20021;-48
2021/04/15 02:05:25;;;;;;;14.27;9.67;;;;;;;;;;5125819;27;20023;-49
2021/04/15 02:07:53;;;;;;;13.47;9.30;;;;;;;;;;5134912;27;20069;-50
2021/04/15 02:10:19;;;;;;;13.67;9.30;;;;;;;;;;5133206;27;20027;-46
2021/04/15 02:12:46;;;;;;;13.57;9.33;;;;;;;;;;5132318;27;20463;-48
2021/04/15 02:15:15;;;;;;;13.93;9.37;;;;;;;;;;5134147;27;20128;-48
2021/04/15 02:17:41;;;;;;;14.97;9.73;;;;;;;;;;5134596;27;20012;-46
2021/04/15 02:20:12;;;;;;;14.00;8.20;;;;;;;;;;5133768;27;20022;-49
2021/04/15 02:22:39;;;;;;;11.67;9.60;;;;;;;;;;5119363;27;20028;-49
2021/04/15 02:25:23;;;;;;;14.33;10.33;;;;;;;;;;5127551;27;20023;-48
2021/04/15 02:28:07;;;;;;;11.93;9.50;;;;;;;;;;5131958;27;20466;-46
2021/04/15 02:30:38;;;;;;;13.33;8.67;;;;;;;;;;5115442;27;20397;-47
2021/04/15 02:33:03;;;;;;;14.43;9.97;;;;;;;;;;5122566;27;20008;-51
2021/04/15 02:35:32;;;;;;;14.43;9.40;;;;;;;;;;5130133;27;20048;-52
2021/04/15 02:37:59;;;;;;;12.27;7.63;;;;;;;;;;5127259;27;20024;-49
2021/04/15 02:40:26;;;;;;;11.83;9.07;;;;;;;;;;5115542;27;20026;-51
2021/04/15 02:42:52;;;;;;;10.20;8.20;;;;;;;;;;5131458;27;20355;-50
2021/04/15 02:45:26;;;;;;;10.13;8.07;;;;;;;;;;5119869;27;20026;-48
2021/04/15 02:47:54;;;;;;;11.17;8.67;;;;;;;;;;5122164;27;20542;-45
2021/04/15 02:50:21;;;;;;;12.47;8.77;;;;;;;;;;5114964;27;20019;-46
2021/04/15 02:52:49;;;;;;;11.67;9.13;;;;;;;;;;5112405;27;20035;-52
2021/04/15 02:55:16;;;;;;;11.83;8.73;;;;;;;;;;5129019;27;20468;-46
2021/04/15 02:57:45;;;;;;;12.37;8.87;;;;;;;;;;5120475;27;20021;-51
2021/04/15 03:00:13;;;;;;;11.43;8.30;;;;;;;;;;5133598;27;20071;-51
2021/04/15 03:02:42;;;;;;;12.20;9.13;;;;;;;;;;5123063;27;20031;-50
2021/04/15 03:05:11;;;;;;;11.33;8.23;;;;;;;;;;5132934;27;20267;-47
2021/04/15 03:07:37;;;;;;;12.60;8.80;;;;;;;;;;5134183;27;20031;-50
2021/04/15 03:10:03;;;;;;;11.13;8.97;;;;;;;;;;5128446;27;20024;-45
2021/04/15 03:12:35;;;;;;;9.73;8.07;;;;;;;;;;5128818;27;20049;-49
2021/04/15 03:15:03;;;;;;;12.07;8.23;;;;;;;;;;5132923;27;20428;-46
2021/04/15 03:17:29;;;;;;;10.23;8.07;;;;;;;;;;5132796;27;20027;-51
2021/04/15 03:20:03;;;;;;;10.27;7.30;;;;;;;;;;5131492;27;20037;-51
2021/04/15 03:22:33;;;;;;;11.13;7.97;;;;;;;;;;5128636;27;20027;-48
2021/04/15 03:24:59;;;;;;;9.47;7.03;;;;;;;;;;5120478;27;20015;-48
2021/04/15 03:27:43;;;;;;;12.67;8.80;;;;;;;;;;5131174;27;20470;-46
2021/04/15 03:30:11;;;;;;;10.20;7.93;;;;;;;;;;5120897;27;20073;-48
2021/04/15 03:32:39;;;;;;;13.03;8.63;;;;;;;;;;5120162;27;20477;-47
2021/04/15 03:35:10;;;;;;;11.67;8.67;;;;;;;;;;5132707;27;20026;-47
2021/04/15 03:37:38;;;;;;;10.53;8.27;;;;;;;;;;5130566;27;20027;-47
2021/04/15 03:40:04;;;;;;;12.07;8.13;;;;;;;;;;5112964;28;20020;-48
2021/04/15 03:42:33;;;;;;;10.50;8.80;;;;;;;;;;5121972;27;20023;-50
2021/04/15 03:45:08;;;;;;;11.87;8.27;;;;;;;;;;5133766;27;20023;-50
2021/04/15 03:47:39;;;;;;;11.05;8.45;;;;;;;;;;5115472;27;20467;-52
2021/04/15 03:50:14;;;;;;;7.53;5.80;;;;;;;;;;5133255;27;20015;-54
2021/04/15 03:52:58;;;;;;;13.32;9.02;;;;;;;;;;5124101;28;20043;-52
2021/04/15 03:55:27;;;;;;;13.17;8.20;;;;;;;;;;5121533;27;20047;-48
2021/04/15 03:57:53;;;;;;;11.83;9.00;;;;;;;;;;5118257;28;20046;-51
2021/04/15 04:00:26;;;;;;;13.20;9.10;;;;;;;;;;5132912;27;20019;-47
2021/04/15 04:02:57;;;;;;;11.20;9.10;;;;;;;;;;5128652;27;20374;-48
2021/04/15 04:05:24;;;;;;;10.97;9.37;;;;;;;;;;5132762;27;20026;-50
2021/04/15 04:07:51;;;;;;;12.27;8.27;;;;;;;;;;5129493;27;20035;-49
2021/04/15 04:10:19;;;;;;;15.10;9.33;;;;;;;;;;5121064;27;20020;-52
2021/04/15 04:12:47;;;;;;;12.73;9.90;;;;;;;;;;5127862;27;20451;-48
2021/04/15 04:15:14;;;;;;;13.23;10.37;;;;;;;;;;5120266;28;20020;-50
2021/04/15 04:18:00;;;;;;;15.80;10.20;;;;;;;;;;5112904;28;20019;-53
2021/04/15 04:20:25;;;;;;;13.88;9.90;;;;;;;;;;5101538;28;20107;-48
2021/04/15 04:22:57;;;;;;;13.37;10.13;;;;;;;;;;5111196;28;20550;-50
2021/04/15 04:25:48;;;;;;;11.80;9.50;;;;;;;;;;5132437;27;20027;-52
2021/04/15 04:28:18;;;;;;;13.53;10.07;;;;;;;;;;5130108;27;20366;-50
2021/04/15 04:31:04;;;;;;;13.77;9.73;;;;;;;;;;5116790;28;20023;-50
2021/04/15 04:33:37;;;;;;;11.83;9.43;;;;;;;;;;5117410;27;20027;-48
2021/04/15 04:36:03;;;;;;;13.50;10.03;;;;;;;;;;5125046;27;20028;-50
2021/04/15 04:38:30;;;;;;;10.77;8.63;;;;;;;;;;5131594;27;20114;-51
2021/04/15 04:41:00;;;;;;;13.37;10.00;;;;;;;;;;5130732;27;20525;-46
2021/04/15 04:43:29;;;;;;;15.27;10.23;;;;;;;;;;5124893;27;20525;-51
2021/04/15 04:45:56;;;;;;;15.20;10.47;;;;;;;;;;5123455;27;20023;-51
2021/04/15 04:48:24;;;;;;;12.63;9.97;;;;;;;;;;5133523;27;20378;-53
2021/04/15 04:51:03;;;;;;;15.03;10.50;;;;;;;;;;5126937;27;20026;-51
2021/04/15 04:53:35;;;;;;;16.07;10.53;;;;;;;;;;5135749;27;20073;-49
2021/04/15 04:56:01;;;;;;;13.33;9.17;;;;;;;;;;5122783;27;20100;-53
2021/04/15 04:58:26;;;;;;;16.30;10.23;;;;;;;;;;5116182;28;20046;-52
2021/04/15 05:00:52;;;;;;;14.00;10.20;;;;;;;;;;5117243;27;20019;-48
2021/04/15 05:03:22;;;;;;;19.17;10.23;;;;;;;;;;5121865;27;20373;-49
2021/04/15 05:05:47;;;;;;;13.93;10.43;;;;;;;;;;5131806;27;20023;-51
2021/04/15 05:08:15;;;;;;;12.60;9.13;;;;;;;;;;5117666;27;20022;-50
2021/04/15 05:10:40;;;;;;;15.47;9.73;;;;;;;;;;5127310;27;20073;-51
2021/04/15 05:13:09;;;;;;;14.00;10.17;;;;;;;;;;5111056;28;20011;-50
2021/04/15 05:15:34;;;;;;;16.93;9.17;;;;;;;;;;5117494;27;20020;-52
2021/04/15 05:18:00;;;;;;;12.77;9.37;;;;;;;;;;5116915;27;20011;-45
2021/04/15 05:20:26;;;;;;;14.83;10.40;;;;;;;;;;5134907;27;20027;-51
2021/04/15 05:22:57;;;;;;;13.23;9.60;;;;;;;;;;5128321;27;20015;-48
2021/04/15 05:25:22;;;;;;;16.67;9.73;;;;;;;;;;5135982;27;20098;-48
2021/04/15 05:27:48;;;;;;;11.93;8.57;;;;;;;;;;5136128;27;20438;-53
2021/04/15 05:30:16;;;;;;;15.23;10.87;;;;;;;;;;5136176;27;20018;-47
2021/04/15 05:32:43;;;;;;;13.83;9.73;;;;;;;;;;5121159;27;20011;-47
2021/04/15 05:35:09;;;;;;;14.10;9.93;;;;;;;;;;5123729;27;20143;-50
2021/04/15 05:37:34;;;;;;;11.57;7.47;;;;;;;;;;5135278;27;20127;-48
2021/04/15 05:40:00;;;;;;;12.70;9.20;;;;;;;;;;5126997;27;20053;-52
2021/04/15 05:42:32;;;;;;;13.13;9.73;;;;;;;;;;5129481;27;20023;-50
2021/04/15 05:45:00;;;;;;;11.83;9.43;;;;;;;;;;5135445;27;20102;-50
2021/04/15 05:47:37;;;;;;;14.67;9.70;;;;;;;;;;5132935;27;20416;-49
2021/04/15 05:50:02;;;;;;;11.57;8.97;;;;;;;;;;5134898;27;20027;-48
2021/04/15 05:52:33;;;;;;;15.33;8.60;;;;;;;;;;5132146;27;20047;-50
2021/04/15 05:55:06;;;;;;;13.13;8.63;;;;;;;;;;5124074;27;20036;-50
2021/04/15 05:57:40;;;;;;;11.40;8.80;;;;;;;;;;5120127;27;20035;-50
2021/04/15 06:00:14;;;;;;;11.93;8.40;;;;;;;;;;5120932;27;20023;-50
2021/04/15 06:02:53;;;;;;;13.97;9.00;;;;;;;;;;5119423;27;20041;-50
2021/04/15 06:05:26;;;;;;;10.27;7.73;;;;;;;;;;5135436;27;20029;-48
2021/04/15 06:07:53;;;;;;;18.03;9.20;;;;;;;;;;5133067;27;20030;-52
2021/04/15 06:10:28;;;;;;;12.70;9.03;;;;;;;;;;5132391;27;20027;-50
2021/04/15 06:12:53;;;;;;;;;;;;;;;;;;5114456;27;20019;-49
2021/04/15 06:15:22;;;;;;;11.75;8.15;;;;;;;;;;5115551;27;19907;-46
2021/04/15 06:17:56;;;;;;;10.77;6.63;;;;;;;;;;5129170;27;20034;-47
2021/04/15 06:20:21;;;;;;;8.13;5.10;;;;;;;;;;5133014;27;20027;-51
2021/04/15 06:22:49;;;;;;;11.17;7.57;;;;;;;;;;5131820;27;20011;-48
2021/04/15 06:25:16;;;;;;;13.87;7.83;;;;;;;;;;5134771;27;20023;-48
2021/04/15 06:27:42;;;;;;;10.53;7.13;;;;;;;;;;5126659;27;20027;-52
2021/04/15 06:30:14;;;;;;;11.60;8.40;;;;;;;;;;5133616;27;20158;-49
2021/04/15 06:32:42;;;;;;;8.40;5.67;;;;;;;;;;5130974;27;20029;-51
2021/04/15 06:35:10;;;;;;;12.73;7.03;;;;;;;;;;5115840;27;20012;-49
2021/04/15 06:37:39;;;;;;;12.23;8.10;;;;;;;;;;5114192;28;20032;-48
2021/04/15 06:40:23;;;;;;;14.17;8.03;;;;;;;;;;5126094;27;20015;-46
2021/04/15 06:42:48;;;;;;;7.47;4.17;;;;;;;;;;5131549;27;20399;-48
2021/04/15 06:45:16;;;;;;;12.13;9.40;;;;;;;;;;5121738;27;20016;-50
2021/04/15 06:47:42;;;;;;;9.17;7.60;;;;;;;;;;5124883;27;20378;-48
2021/04/15 06:50:16;;;;;;;9.87;7.63;;;;;;;;;;5128078;27;20015;-48
2021/04/15 06:52:44;;;;;;;6.37;3.87;;;;;;;;;;5130896;27;20063;-49
2021/04/15 06:55:30;;;;;;;12.87;7.10;;;;;;;;;;5119668;27;20020;-49
2021/04/15 06:58:01;;;;;;;12.65;8.85;;;;;;;;;;5132331;27;20456;-49
2021/04/15 07:00:29;;;;;;;14.07;9.13;;;;;;;;;;5133844;27;20106;-52
2021/04/15 07:03:13;;;;;;;10.77;8.13;;;;;;;;;;5120009;27;20020;-48
2021/04/15 07:05:41;;;;;;;9.10;7.07;;;;;;;;;;5130460;27;20390;-54
2021/04/15 07:08:25;;;;;;;7.30;5.53;;;;;;;;;;5128581;27;20039;-48
2021/04/15 07:11:12;;;;;;;6.47;3.50;;;;;;;;;;5126999;27;20412;-46
2021/04/15 07:13:56;;;;;;;3.57;2.23;;;;;;;;;;5114003;27;20505;-51
2021/04/15 07:16:40;;;;;;;4.40;2.83;;;;;;;;;;5128017;27;20036;-50
2021/04/15 07:19:23;;;;;;;5.27;2.43;;;;;;;;;;5112701;28;20482;-48
2021/04/15 07:21:54;;;;;;;7.63;3.60;;;;;;;;;;5123253;27;20019;-46
2021/04/15 07:24:32;;;;;;;3.90;2.20;;;;;;;;;;5133148;27;20027;-49
2021/04/15 07:27:06;;;;;;;2.53;2.00;;;;;;;;;;5132766;27;20458;-51
2021/04/15 07:29:43;;;;;;;4.13;2.00;;;;;;;;;;5125174;27;20015;-52
2021/04/15 07:32:23;;;;;;;2.60;1.73;;;;;;;;;;5113384;27;20494;-47
2021/04/15 07:34:51;;;;;;;3.53;2.50;;;;;;;;;;5127293;27;20471;-49
2021/04/15 07:37:35;;;;;;;4.15;2.80;;;;;;;;;;5118796;27;20031;-48
2021/04/15 07:40:00;;;;;;;3.88;2.30;;;;;;;;;;5121631;27;20389;-48
2021/04/15 07:42:25;;;;;;;3.15;1.52;;;;;;;;;;5129204;27;20028;-50
2021/04/15 07:44:52;;;;;;;3.47;1.90;;;;;;;;;;5130070;27;20030;-50
2021/04/15 07:47:23;;;;;;;2.92;1.58;;;;;;;;;;5131133;27;20493;-53
2021/04/15 07:49:51;;;;;;;5.15;1.85;;;;;;;;;;5122150;27;20023;-47
2021/04/15 07:52:17;;;;;;;6.22;1.75;;;;;;;;;;5129954;27;20050;-52
2021/04/15 07:55:18;;;;;;;2.75;1.70;;;;;;;;;;5122342;27;20030;-50
2021/04/15 07:57:43;;;;;;;4.57;2.00;;;;;;;;;;5046689;28;20022;-50
2021/04/15 08:00:17;;;;;;;1.90;1.08;;;;;;;;;;5030808;28;20543;-49
2021/04/15 08:02:45;;;;;;;3.60;1.80;;;;;;;;;;5045518;28;20032;-46
2021/04/15 08:05:16;;;;;;;5.03;1.67;;;;;;;;;;5048838;28;20434;-52
2021/04/15 08:08:00;;;;;;;2.97;1.23;;;;;;;;;;5046478;28;20068;-49
2021/04/15 08:10:31;;;;;;;3.33;0.90;;;;;;;;;;5054179;28;20390;-48
2021/04/15 08:13:02;;;;;;;2.38;0.80;;;;;;;;;;5048815;28;20083;-49
2021/04/15 08:15:30;;;;;;;2.50;0.80;;;;;;;;;;5050555;28;20068;-51
2021/04/15 08:18:14;;;;;;;2.72;1.10;;;;;;;;;;5053632;28;20033;-51
2021/04/15 08:20:49;;;;;;;2.25;0.70;;;;;;;;;;5040383;28;20070;-47
2021/04/15 08:23:20;;;;;;;1.42;0.68;;;;;;;;;;5032168;28;20017;-49
2021/04/15 08:26:11;;;;;;;1.13;0.50;;;;;;;;;;5046478;28;20504;-48
2021/04/15 08:28:55;;;;;;;3.25;0.65;;;;;;;;;;5019444;28;20040;-47
2021/04/15 08:31:47;;;;;;;1.88;0.57;;;;;;;;;;5074627;28;20564;-52
2021/04/15 08:34:35;;;;;;;1.90;0.90;;;;;;;;;;5115268;28;20027;-50
2021/04/15 08:37:15;;;;;;;2.10;0.70;;;;;;;;;;5036414;28;20033;-49
2021/04/15 08:39:50;;;;;;;2.35;0.60;;;;;;;;;;5044202;28;20055;-48
2021/04/15 08:42:34;;;;;;;0.90;0.30;;;;;;;;;;5051675;28;20623;-49
2021/04/15 08:45:18;;;;;;;2.22;0.80;;;;;;;;;;5049565;28;20024;-51
2021/04/15 08:47:49;;;;;;;3.10;0.70;;;;;;;;;;5037361;28;20485;-49
2021/04/15 08:50:20;;;;;;;2.17;0.77;;;;;;;;;;5051055;28;20028;-51
2021/04/15 08:53:06;;;;;;;3.22;0.57;;;;;;;;;;5052790;28;20037;-52
2021/04/15 08:55:31;;;;;;;1.40;0.85;;;;;;;;;;5049720;28;20091;-50
2021/04/15 08:57:59;;;;;;;2.53;0.73;;;;;;;;;;5051416;28;20503;-46
2021/04/15 09:00:43;;;;;;;1.30;0.40;;;;;;;;;;5038299;28;20489;-49
2021/04/15 09:03:14;;;;;;;1.98;0.40;;;;;;;;;;5051504;28;20080;-53
2021/04/15 09:05:41;;;;;;;2.20;0.75;;;;;;;;;;5043100;28;20037;-50
2021/04/15 09:08:16;;;;;;;2.03;0.57;;;;;;;;;;5035915;28;20056;-49
2021/04/15 09:10:44;;;;;;;1.63;0.55;;;;;;;;;;5052880;28;20020;-50
2021/04/15 09:13:24;;;;;;;2.42;0.45;;;;;;;;;;5061073;28;20562;-47
2021/04/15 09:16:04;;;;;;;1.85;0.57;;;;;;;;;;5121011;27;20053;-51
2021/04/15 09:18:29;;;;;;;0.80;0.30;;;;;;;;;;5136320;27;20100;-47
2021/04/15 09:21:13;;;;;;;0.60;0.40;;;;;;;;;;5127348;27;20035;-48
2021/04/15 09:23:38;;;;;;;2.78;0.50;;;;;;;;;;5122121;27;20023;-50
2021/04/15 09:26:09;;;;;;;2.33;0.30;;;;;;;;;;5122251;27;20035;-50
2021/04/15 09:28:47;;;;;;;2.28;0.30;;;;;;;;;;5129476;27;20023;-48
2021/04/15 09:31:31;;;;;;;2.50;0.30;;;;;;;;;;5123928;27;20100;-51
2021/04/15 09:33:59;;;;;;;1.33;0.22;;;;;;;;;;5128942;27;20026;-47
2021/04/15 09:36:43;;;;;;;0.57;0.30;;;;;;;;;;5135910;27;20477;-52
2021/04/15 09:39:26;;;;;;;2.42;0.30;;;;;;;;;;5122042;27;20095;-52
2021/04/15 09:42:16;;;;;;;0.80;0.20;;;;;;;;;;5131421;27;20110;-49
2021/04/15 09:45:00;;;;;;;1.20;0.80;;;;;;;;;;5125687;27;20023;-46
2021/04/15 09:47:31;;;;;;;0.95;0.80;;;;;;;;;;5122354;27;20055;-53
2021/04/15 09:50:18;;;;;;;0.90;0.50;;;;;;;;;;5118529;27;20424;-51
2021/04/15 09:53:03;;;;;;;3.13;0.50;;;;;;;;;;5122474;27;20490;-50
2021/04/15 09:55:39;;;;;;;1.20;0.20;;;;;;;;;;5123046;27;20027;-49
2021/04/15 09:58:22;;;;;;;1.15;0.30;;;;;;;;;;5123371;27;20035;-50
2021/04/15 10:00:48;;;;;;;1.20;0.20;;;;;;;;;;5119932;27;20033;-51
2021/04/15 10:03:32;;;;;;;0.55;0.20;;;;;;;;;;5128073;27;20031;-48
2021/04/15 10:06:03;;;;;;;1.20;0.20;;;;;;;;;;5122556;27;20378;-50
2021/04/15 10:08:47;;;;;;;2.05;0.20;;;;;;;;;;5121709;27;20027;-48
2021/04/15 10:11:31;;;;;;;1.90;0.20;;;;;;;;;;5111111;27;20065;-49
2021/04/15 10:13:56;;;;;;;4.00;0.50;;;;;;;;;;5123705;27;20027;-47
2021/04/15 10:16:26;;;;;;;2.20;0.43;;;;;;;;;;5125338;27;20030;-51
2021/04/15 10:19:01;;;;;;;0.77;0.15;;;;;;;;;;5131567;27;20019;-49
2021/04/15 10:21:37;;;;;;;2.65;1.40;;;;;;;;;;5127698;27;20019;-52
2021/04/15 10:24:07;;;;;;;1.45;0.30;;;;;;;;;;5131256;27;20023;-49
2021/04/15 10:26:51;;;;;;;1.38;0.40;;;;;;;;;;5132661;27;20023;-52
2021/04/15 10:29:31;;;;;;;1.50;0.40;;;;;;;;;;5131681;27;20522;-48
2021/04/15 10:32:08;;;;;;;0.50;0.10;;;;;;;;;;5115758;27;20019;-50
2021/04/15 10:35:00;;;;;;;1.45;0.17;;;;;;;;;;5117035;27;20050;-50
2021/04/15 10:37:51;;;;;;;1.38;0.20;;;;;;;;;;5099789;27;20059;-48
2021/04/15 10:40:25;;;;;;;0.50;0.20;;;;;;;;;;5121147;27;20110;-48
2021/04/15 10:43:09;;;;;;;1.48;0.20;;;;;;;;;;5123113;27;20054;-51
2021/04/15 10:45:53;;;;;;;0.75;0.20;;;;;;;;;;5121452;27;20019;-49
2021/04/15 10:48:24;;;;;;;1.02;0.20;;;;;;;;;;5124970;27;20027;-46
2021/04/15 10:50:56;;;;;;;3.13;0.28;;;;;;;;;;5122840;27;20033;-52
2021/04/15 10:53:28;;;;;;;2.38;0.85;;;;;;;;;;5120447;27;20116;-50
2021/04/15 10:56:03;;;;;;;1.48;0.30;;;;;;;;;;5122562;27;20805;-46
2021/04/15 10:58:36;;;;;;;0.95;0.30;;;;;;;;;;5126200;27;20023;-47
2021/04/15 11:01:21;;;;;;;0.63;0.22;;;;;;;;;;5123032;27;20118;-52
2021/04/15 11:03:46;;;;;;;0.82;0.20;;;;;;;;;;5125284;27;20084;-51
2021/04/15 11:06:27;;;;;;;0.95;0.30;;;;;;;;;;5123499;27;20026;-53
2021/04/15 11:08:52;;;;;;;0.30;0.17;;;;;;;;;;5114635;27;20027;-51
2021/04/15 11:11:24;;;;;;;0.70;0.28;;;;;;;;;;5118791;27;20019;-48
2021/04/15 11:13:59;;;;;;;1.90;0.32;;;;;;;;;;5122684;27;20025;-50
2021/04/15 11:16:34;;;;;;;0.60;0.20;;;;;;;;;;5120249;27;20075;-48
2021/04/15 11:19:00;;;;;;;;;;;;;;;;;;5123155;27;20022;-48
2021/04/15 11:21:28;;;;;;;0.28;0.15;;;;;;;;;;5118052;27;19908;-50
2021/04/15 11:23:55;;;;;;;0.70;0.30;;;;;;;;;;5118885;27;20027;-51
2021/04/15 11:26:27;;;;;;;1.85;0.40;;;;;;;;;;5122528;27;20028;-50
2021/04/15 11:28:54;;;;;;;2.00;0.30;;;;;;;;;;5122055;27;20019;-53
2021/04/15 11:31:27;;;;;;;1.38;0.30;;;;;;;;;;5119693;27;20023;-48
2021/04/15 11:34:02;;;;;;;1.70;0.30;;;;;;;;;;5123174;27;20024;-49
2021/04/15 11:36:30;;;;;;;1.65;0.30;;;;;;;;;;5121780;27;20027;-53
2021/04/15 11:39:04;;;;;;;2.63;0.40;;;;;;;;;;5118518;27;20025;-48
2021/04/15 11:41:31;;;;;;;1.23;0.30;;;;;;;;;;5118187;27;20402;-51
2021/04/15 11:44:22;;;;;;;0.90;0.30;;;;;;;;;;5123224;27;21441;-50
2021/04/15 11:46:48;;;;;;;0.85;0.15;;;;;;;;;;5117258;27;20035;-48
2021/04/15 11:49:13;;;;;;;1.13;0.20;;;;;;;;;;5117662;27;20019;-50
2021/04/15 11:51:54;;;;;;;0.60;0.10;;;;;;;;;;5122629;27;20114;-51
2021/04/15 11:54:36;;;;;;;1.75;0.10;;;;;;;;;;5122542;27;20031;-51
2021/04/15 11:57:19;;;;;;;0.50;0.20;;;;;;;;;;5115969;27;20123;-50
2021/04/15 12:00:02;;;;;;;1.05;0.20;;;;;;;;;;5121137;27;20102;-49
2021/04/15 12:02:28;;;;;;;0.90;0.10;;;;;;;;;;5116899;27;20081;-52
2021/04/15 12:05:08;;;;;;;1.10;0.20;;;;;;;;;;5125274;28;20482;-47
2021/04/15 12:07:34;;;;;;;0.10;0.10;;;;;;;;;;5122464;28;20027;-54
2021/04/15 12:09:59;;;;;;;0.25;0.10;;;;;;;;;;5121854;27;20364;-48
2021/04/15 12:12:30;;;;;;;0.98;0.15;;;;;;;;;;5120226;27;20016;-48
2021/04/15 12:14:56;;;;;;;2.40;0.20;;;;;;;;;;5122876;28;20575;-46
2021/04/15 12:17:22;;;;;;;2.25;0.30;;;;;;;;;;5123736;27;20413;-50
2021/04/15 12:20:07;;;;;;;0.57;0.10;;;;;;;;;;5121727;27;20036;-48
2021/04/15 12:22:39;;;;;;;0.65;0.20;;;;;;;;;;5112795;28;20102;-48
2021/04/15 12:25:10;;;;;;;0.17;0.10;;;;;;;;;;5121122;28;20019;-48
2021/04/15 12:27:35;;;;;;;0.35;0.10;;;;;;;;;;5120881;28;20015;-46
2021/04/15 12:30:07;;;;;;;0.17;0.10;;;;;;;;;;5118772;27;20030;-49
2021/04/15 12:32:55;;;;;;;1.58;0.10;;;;;;;;;;5110509;28;20475;-54
2021/04/15 12:35:23;;;;;;;2.15;0.10;;;;;;;;;;5111010;28;20039;-50
2021/04/15 12:38:08;;;;;;;1.02;0.17;;;;;;;;;;5120250;27;20019;-48
2021/04/15 12:40:35;;;;;;;1.88;0.10;;;;;;;;;;5120680;28;20102;-47
2021/04/15 12:43:02;;;;;;;0.47;0.10;;;;;;;;;;5116632;27;20103;-49
2021/04/15 12:45:37;;;;;;;0.35;0.10;;;;;;;;;;5120852;27;20183;-50
2021/04/15 12:48:04;;;;;;;1.08;0.20;;;;;;;;;;5126030;28;20040;-51
2021/04/15 12:50:29;;;;;;;1.40;0.20;;;;;;;;;;5129122;27;20355;-53
2021/04/15 12:52:56;;;;;;;0.93;0.20;;;;;;;;;;5123207;27;20051;-52
2021/04/15 12:55:22;;;;;;;0.70;0.20;;;;;;;;;;5126411;27;20031;-51
2021/04/15 12:57:48;;;;;;;0.90;0.30;;;;;;;;;;5129012;27;20027;-51
2021/04/15 13:00:16;;;;;;;0.55;0.13;;;;;;;;;;5121190;27;20399;-51
2021/04/15 13:02:41;;;;;;;0.45;0.15;;;;;;;;;;5120868;27;20031;-52
2021/04/15 13:05:12;;;;;;;1.50;0.32;;;;;;;;;;5136160;27;20026;-50
2021/04/15 13:07:42;;;;;;;2.50;0.30;;;;;;;;;;5118912;27;20493;-53
2021/04/15 13:10:13;;;;;;;2.10;0.40;;;;;;;;;;5134393;27;20102;-50
2021/04/15 13:12:39;;;;;;;1.20;0.22;;;;;;;;;;5131439;27;20620;-50
2021/04/15 13:15:08;;;;;;;2.00;0.40;;;;;;;;;;5131744;27;20042;-49
2021/04/15 13:17:42;;;;;;;1.30;0.30;;;;;;;;;;5119299;27;20107;-52
2021/04/15 13:20:15;;;;;;;0.73;0.30;;;;;;;;;;5121804;27;20419;-53
2021/04/15 13:22:42;;;;;;;0.55;0.20;;;;;;;;;;5120682;27;20030;-47
2021/04/15 13:25:12;;;;;;;3.03;0.30;;;;;;;;;;5132123;27;20023;-51
2021/04/15 13:27:38;;;;;;;1.42;0.30;;;;;;;;;;5120197;27;20031;-50
2021/04/15 13:30:22;;;;;;;1.92;0.30;;;;;;;;;;5123695;27;20428;-52
2021/04/15 13:33:07;;;;;;;2.75;0.40;;;;;;;;;;5132656;27;20015;-49
2021/04/15 13:35:52;;;;;;;1.33;0.30;;;;;;;;;;5122391;27;20107;-49
2021/04/15 13:38:27;;;;;;;3.50;0.50;;;;;;;;;;5131328;27;20302;-46
2021/04/15 13:40:53;;;;;;;1.40;0.20;;;;;;;;;;5116788;27;20026;-47
2021/04/15 13:43:48;;;;;;;1.58;0.20;;;;;;;;;;5114417;27;20031;-47
2021/04/15 13:46:25;;;;;;;1.17;0.20;;;;;;;;;;5046090;28;20119;-48
2021/04/15 13:49:00;;;;;;;0.93;0.30;;;;;;;;;;5034217;28;20427;-49
2021/04/15 13:51:31;;;;;;;2.00;0.30;;;;;;;;;;5030749;28;20029;-49
2021/04/15 13:54:15;;;;;;;0.90;0.30;;;;;;;;;;5041093;28;20392;-50
2021/04/15 13:56:52;;;;;;;1.20;0.40;;;;;;;;;;5051050;28;20029;-47
2021/04/15 13:59:39;;;;;;;0.70;0.25;;;;;;;;;;5039049;28;20584;-53
2021/04/15 14:02:04;;;;;;;1.48;0.40;;;;;;;;;;5047463;28;20021;-46
2021/04/15 14:04:42;;;;;;;1.92;0.30;;;;;;;;;;5051701;28;20024;-50
2021/04/15 14:07:20;;;;;;;1.52;0.20;;;;;;;;;;5047657;28;20041;-48
2021/04/15 14:09:45;;;;;;;1.17;0.20;;;;;;;;;;5034960;28;20417;-51
2021/04/15 14:12:29;;;;;;;3.95;0.30;;;;;;;;;;5047083;28;20220;-50
2021/04/15 14:14:55;;;;;;;1.00;0.30;;;;;;;;;;5044724;28;20017;-50
2021/04/15 14:17:21;;;;;;;1.45;0.30;;;;;;;;;;5042847;28;20123;-51
2021/04/15 14:19:47;;;;;;;1.50;0.20;;;;;;;;;;5048844;28;20468;-51
2021/04/15 14:22:20;;;;;;;1.80;0.40;;;;;;;;;;5068031;27;20047;-54
2021/04/15 14:24:50;;;;;;;2.75;0.35;;;;;;;;;;5125649;27;20116;-54
2021/04/15 14:27:18;;;;;;;1.42;0.55;;;;;;;;;;5125501;27;20035;-52
2021/04/15 14:29:46;;;;;;;0.32;0.20;;;;;;;;;;5129310;27;20472;-50
2021/04/15 14:32:17;;;;;;;1.05;0.30;;;;;;;;;;5127373;27;20467;-59
2021/04/15 14:34:47;;;;;;;1.55;0.22;;;;;;;;;;5123481;27;20024;-59
2021/04/15 14:37:12;;;;;;;0.50;0.30;;;;;;;;;;5129574;27;20443;-51
2021/04/15 14:39:37;;;;;;;2.25;0.30;;;;;;;;;;5120162;27;20027;-57
2021/04/15 14:42:04;;;;;;;1.15;0.57;;;;;;;;;;5113453;27;20514;-48
2021/04/15 14:44:30;;;;;;;1.27;0.52;;;;;;;;;;5128375;27;20023;-52
2021/04/15 14:46:56;;;;;;;1.40;0.28;;;;;;;;;;5132738;27;20470;-52
2021/04/15 14:49:26;;;;;;;1.35;0.35;;;;;;;;;;5122424;27;20027;-53
2021/04/15 14:52:04;;;;;;;0.93;0.30;;;;;;;;;;5113236;27;20563;-49
2021/04/15 14:54:31;;;;;;;0.82;0.30;;;;;;;;;;5131339;27;20015;-51
2021/04/15 14:56:57;;;;;;;0.70;0.38;;;;;;;;;;5116951;27;20355;-50
2021/04/15 14:59:23;;;;;;;1.05;0.38;;;;;;;;;;5125688;27;20026;-49
2021/04/15 15:01:49;;;;;;;0.90;0.32;;;;;;;;;;5125624;27;20011;-47
2021/04/15 15:04:28;;;;;;;1.45;0.38;;;;;;;;;;5133078;27;20497;-48